Terminal Aerodrome Forecast
Issued by NWS

Home | Current Version | Previous Version | Text Only | Print | Product List | Glossary On
Versions: 1 2 3 4 5 6 7 8 9 10 11 12 13
483
FTUS45 KABQ 142320
TAFSAF
TAF
KSAF 142320Z 1500/1524 16008KT P6SM FEW090
     FM150300 12005KT P6SM SKC
     FM151000 36009KT P6SM SKC
     FM151400 36014G20KT P6SM SKC
     FM151900 32010KT P6SM SCT200=

USA.gov is the U.S. government's official web portal to all federal, state and local government web resources and services.